createdAt,value
2023-03-29T00:02:14.459Z,42.71
2023-03-29T00:04:40.861Z,41.63
2023-03-29T00:07:07.364Z,41.59
2023-03-29T00:09:33.745Z,43.15
2023-03-29T00:12:00.218Z,42.42
2023-03-29T00:14:26.577Z,43.23
2023-03-29T00:16:53.042Z,44.30
2023-03-29T00:19:19.521Z,43.51
2023-03-29T00:21:46.057Z,45.02
2023-03-29T00:24:12.427Z,43.51
2023-03-29T00:26:38.816Z,42.16
2023-03-29T00:29:05.233Z,41.50
2023-03-29T00:31:31.725Z,41.47
2023-03-29T00:33:58.150Z,40.41
2023-03-29T00:36:24.557Z,39.64
2023-03-29T00:38:51.006Z,40.00
2023-03-29T00:41:17.456Z,41.17
2023-03-29T00:43:43.806Z,41.05
2023-03-29T00:46:10.252Z,40.56
2023-03-29T00:48:36.679Z,40.44
2023-03-29T00:51:03.310Z,39.64
2023-03-29T00:53:29.800Z,39.20
2023-03-29T00:55:56.150Z,38.65
2023-03-29T00:58:22.558Z,39.39
2023-03-29T01:00:49.011Z,39.59
2023-03-29T01:03:15.675Z,39.36
2023-03-29T01:05:42.154Z,39.60
2023-03-29T01:08:08.507Z,39.81
2023-03-29T01:10:34.897Z,39.36
2023-03-29T01:13:01.277Z,38.97
2023-03-29T01:15:27.679Z,38.16
2023-03-29T01:17:54.131Z,38.01
2023-03-29T01:20:20.533Z,37.64
2023-03-29T01:22:46.891Z,36.86
2023-03-29T01:25:13.265Z,38.61
2023-03-29T01:27:39.660Z,37.65
2023-03-29T01:30:06.062Z,38.53
2023-03-29T01:32:32.466Z,38.43
2023-03-29T01:34:58.835Z,38.38
2023-03-29T01:37:25.209Z,38.26
2023-03-29T01:39:51.569Z,38.18
2023-03-29T01:42:17.942Z,38.39
2023-03-29T01:44:44.288Z,38.43
2023-03-29T01:47:10.685Z,37.79
2023-03-29T01:49:37.067Z,37.70
2023-03-29T01:52:03.512Z,37.64
2023-03-29T01:54:29.888Z,37.94
2023-03-29T01:56:56.289Z,38.90
2023-03-29T01:59:22.770Z,38.19
2023-03-29T02:01:49.598Z,38.09
2023-03-29T02:04:16.038Z,38.50
2023-03-29T02:06:42.446Z,38.42
2023-03-29T02:09:08.877Z,38.52
2023-03-29T02:11:35.389Z,38.43
2023-03-29T02:14:01.759Z,38.56
2023-03-29T02:16:28.140Z,41.00
2023-03-29T02:18:54.575Z,40.45
2023-03-29T02:21:21.026Z,39.90
2023-03-29T02:23:47.413Z,38.77
2023-03-29T02:26:13.773Z,39.82
2023-03-29T02:28:40.142Z,39.70
2023-03-29T02:31:06.725Z,40.77
2023-03-29T02:33:33.154Z,42.44
2023-03-29T02:35:59.553Z,41.46
2023-03-29T02:38:26.015Z,40.29
2023-03-29T02:40:52.417Z,39.94
2023-03-29T02:43:18.798Z,39.71
2023-03-29T02:45:45.276Z,39.49
2023-03-29T02:48:11.684Z,39.14
2023-03-29T02:50:38.114Z,38.83
2023-03-29T02:53:04.474Z,39.37
2023-03-29T02:55:30.858Z,39.96
2023-03-29T02:57:57.280Z,39.39
2023-03-29T03:00:23.669Z,37.84
2023-03-29T03:02:50.226Z,37.55
2023-03-29T03:05:16.669Z,38.45
2023-03-29T03:07:43.076Z,38.90
2023-03-29T03:10:09.443Z,38.91
2023-03-29T03:12:35.827Z,37.75
2023-03-29T03:15:02.403Z,37.66
2023-03-29T03:17:29.074Z,37.94
2023-03-29T03:19:55.439Z,38.80
2023-03-29T03:22:21.847Z,41.09
2023-03-29T03:24:48.229Z,41.25
2023-03-29T03:27:14.597Z,41.31
2023-03-29T03:29:40.989Z,39.13
2023-03-29T03:32:07.510Z,38.76
2023-03-29T03:34:34.257Z,39.55
2023-03-29T03:37:02.458Z,40.15
2023-03-29T03:39:28.869Z,39.77
2023-03-29T03:41:55.239Z,39.74
2023-03-29T03:44:21.617Z,39.11
2023-03-29T03:46:47.985Z,38.65
2023-03-29T03:49:14.355Z,38.92
2023-03-29T03:51:40.737Z,38.43
2023-03-29T03:54:07.099Z,39.25
2023-03-29T03:56:33.478Z,38.54
2023-03-29T03:58:59.852Z,38.18
2023-03-29T04:01:26.237Z,38.17
2023-03-29T04:03:52.672Z,38.62
2023-03-29T04:06:19.054Z,39.41
2023-03-29T04:08:45.550Z,39.63
2023-03-29T04:11:12.052Z,40.25
2023-03-29T04:13:38.444Z,39.18
2023-03-29T04:16:05.030Z,39.39
2023-03-29T04:18:31.593Z,38.63
2023-03-29T04:20:58.044Z,39.42
2023-03-29T04:23:24.437Z,39.23
2023-03-29T04:25:50.845Z,39.13
2023-03-29T04:28:17.261Z,37.65
2023-03-29T04:30:43.625Z,37.57
2023-03-29T04:33:10.061Z,38.77
2023-03-29T04:35:36.509Z,39.81
2023-03-29T04:38:02.935Z,39.86
2023-03-29T04:40:29.282Z,39.21
2023-03-29T04:42:55.626Z,38.18
2023-03-29T04:45:22.128Z,39.46
2023-03-29T04:47:51.968Z,38.82
2023-03-29T04:50:18.388Z,39.65
2023-03-29T04:52:44.752Z,39.85
2023-03-29T04:55:11.124Z,40.81
2023-03-29T04:57:37.545Z,40.69
2023-03-29T05:00:03.923Z,40.11
2023-03-29T05:02:30.364Z,39.47
2023-03-29T05:04:56.904Z,38.74
2023-03-29T05:07:23.267Z,39.62
2023-03-29T05:09:49.622Z,41.09
2023-03-29T05:12:16.003Z,40.83
2023-03-29T05:14:43.583Z,40.13
2023-03-29T05:17:09.948Z,39.78
2023-03-29T05:19:36.360Z,38.86
2023-03-29T05:22:02.858Z,38.18
2023-03-29T05:24:29.257Z,39.16
2023-03-29T05:26:55.697Z,39.61
2023-03-29T05:29:22.123Z,40.55
2023-03-29T05:31:48.562Z,40.39
2023-03-29T05:34:15.000Z,40.04
2023-03-29T05:36:41.373Z,39.90
2023-03-29T05:39:07.762Z,39.85
2023-03-29T05:41:34.139Z,39.75
2023-03-29T05:44:00.606Z,39.44
2023-03-29T05:46:27.173Z,39.79
2023-03-29T05:48:53.688Z,40.88
2023-03-29T05:51:20.057Z,40.60
2023-03-29T05:53:46.565Z,39.94
2023-03-29T05:56:12.949Z,40.36
2023-03-29T05:58:39.332Z,39.60
2023-03-29T06:01:05.771Z,40.09
2023-03-29T06:03:32.368Z,39.10
2023-03-29T06:05:58.942Z,39.16
2023-03-29T06:08:25.371Z,39.45
2023-03-29T06:10:51.798Z,39.37
2023-03-29T06:13:18.639Z,38.51
2023-03-29T06:15:45.140Z,39.01
2023-03-29T06:18:11.762Z,38.79
2023-03-29T06:20:38.173Z,38.67
2023-03-29T06:23:04.714Z,39.18
2023-03-29T06:25:31.104Z,38.13
2023-03-29T06:27:58.393Z,39.54
2023-03-29T06:30:24.772Z,40.33
2023-03-29T06:32:51.149Z,41.32
2023-03-29T06:35:17.658Z,39.24
2023-03-29T06:37:44.010Z,39.44
2023-03-29T06:40:10.519Z,39.47
2023-03-29T06:42:36.926Z,38.97
2023-03-29T06:45:06.615Z,38.16
2023-03-29T06:47:33.018Z,38.98
2023-03-29T06:49:59.439Z,38.59
2023-03-29T06:52:26.319Z,40.19
2023-03-29T06:54:52.910Z,39.63
2023-03-29T06:57:19.328Z,39.89
2023-03-29T06:59:45.894Z,40.41
2023-03-29T07:02:12.624Z,39.57
2023-03-29T07:04:39.260Z,40.69
2023-03-29T07:07:05.671Z,39.83
2023-03-29T07:09:32.247Z,40.20
2023-03-29T07:11:58.666Z,40.23
2023-03-29T07:14:25.375Z,41.05
2023-03-29T07:16:51.829Z,40.04
2023-03-29T07:19:18.245Z,40.04
2023-03-29T07:21:44.618Z,40.19
2023-03-29T07:24:11.165Z,39.73
2023-03-29T07:26:38.000Z,39.07
2023-03-29T07:29:04.391Z,38.65
2023-03-29T07:31:30.849Z,38.38
2023-03-29T07:33:57.478Z,37.59
2023-03-29T07:36:24.089Z,37.80
2023-03-29T07:38:50.697Z,37.72
2023-03-29T07:41:17.062Z,38.24
2023-03-29T07:43:43.472Z,38.64
2023-03-29T07:46:10.002Z,38.70
2023-03-29T07:48:36.574Z,38.19
2023-03-29T07:51:03.130Z,38.41
2023-03-29T07:53:29.870Z,38.81
2023-03-29T07:55:56.527Z,38.55
2023-03-29T07:58:22.948Z,38.64
2023-03-29T08:00:49.415Z,37.94
2023-03-29T08:03:15.929Z,38.09
2023-03-29T08:05:42.460Z,38.20
2023-03-29T08:08:08.883Z,37.97
2023-03-29T08:10:35.314Z,37.81
2023-03-29T08:13:01.758Z,37.82
2023-03-29T08:15:28.216Z,37.76
2023-03-29T08:17:54.747Z,37.60
2023-03-29T08:20:21.264Z,38.12
2023-03-29T08:22:47.709Z,38.21
2023-03-29T08:25:14.121Z,39.05
2023-03-29T08:27:40.543Z,38.70
2023-03-29T08:30:07.015Z,38.93
2023-03-29T08:32:33.459Z,38.38
2023-03-29T08:34:59.898Z,38.54
2023-03-29T08:37:26.291Z,38.44
2023-03-29T08:39:52.698Z,37.86
2023-03-29T08:42:19.096Z,37.51
2023-03-29T08:44:45.609Z,37.16
2023-03-29T08:47:11.988Z,36.42
2023-03-29T08:49:38.567Z,36.23
2023-03-29T08:52:04.928Z,36.30
2023-03-29T08:54:31.298Z,36.67
2023-03-29T08:56:57.721Z,37.14
2023-03-29T08:59:24.163Z,35.98
2023-03-29T09:01:50.610Z,36.43
2023-03-29T09:04:16.997Z,35.60
2023-03-29T09:06:43.396Z,35.95
2023-03-29T09:09:09.874Z,36.47
2023-03-29T09:11:36.292Z,36.09
2023-03-29T09:14:02.758Z,36.42
2023-03-29T09:16:29.282Z,36.51
2023-03-29T09:18:55.796Z,36.81
2023-03-29T09:21:22.263Z,36.28
2023-03-29T09:23:48.721Z,36.35
2023-03-29T09:26:15.106Z,35.53
2023-03-29T09:28:41.472Z,35.45
2023-03-29T09:31:08.019Z,36.02
2023-03-29T09:33:34.442Z,36.72
2023-03-29T09:36:01.018Z,36.76
2023-03-29T09:38:27.437Z,36.04
2023-03-29T09:40:53.852Z,35.21
2023-03-29T09:43:20.214Z,35.85
2023-03-29T09:45:46.628Z,35.44
2023-03-29T09:48:13.160Z,35.21
2023-03-29T09:50:39.578Z,35.37
2023-03-29T09:53:05.970Z,36.04
2023-03-29T09:55:32.507Z,36.26
2023-03-29T09:57:59.073Z,36.45
2023-03-29T10:00:25.949Z,35.30
2023-03-29T10:02:52.549Z,35.74
2023-03-29T10:05:19.127Z,36.14
2023-03-29T10:07:45.527Z,36.67
2023-03-29T10:10:11.999Z,36.74
2023-03-29T10:12:38.392Z,36.41
2023-03-29T10:15:04.948Z,35.58
2023-03-29T10:17:31.409Z,36.12
2023-03-29T10:19:57.971Z,35.78
2023-03-29T10:22:24.374Z,34.61
2023-03-29T10:24:50.809Z,35.07
2023-03-29T10:27:17.237Z,34.23
2023-03-29T10:29:43.636Z,34.85
2023-03-29T10:32:10.079Z,34.68
2023-03-29T10:34:36.579Z,34.94
2023-03-29T10:37:03.072Z,34.72
2023-03-29T10:39:29.459Z,35.58
2023-03-29T10:41:55.846Z,35.38
2023-03-29T10:44:22.208Z,36.00
2023-03-29T10:46:48.621Z,36.15
2023-03-29T10:49:15.095Z,36.36
2023-03-29T10:51:41.481Z,35.43
2023-03-29T10:54:07.995Z,34.69
2023-03-29T10:56:34.381Z,34.83
2023-03-29T10:59:00.868Z,35.88
2023-03-29T11:01:27.281Z,34.63
2023-03-29T11:03:53.951Z,34.42
2023-03-29T11:06:20.801Z,33.56
2023-03-29T11:08:47.324Z,33.42
2023-03-29T11:11:13.767Z,33.50
2023-03-29T11:13:40.166Z,32.54
2023-03-29T11:16:06.625Z,33.16
2023-03-29T11:18:33.025Z,33.21
2023-03-29T11:20:59.436Z,33.37
2023-03-29T11:23:25.950Z,33.45
2023-03-29T11:25:52.414Z,34.92
2023-03-29T11:28:18.895Z,34.70
2023-03-29T11:30:45.340Z,34.64
2023-03-29T11:33:11.985Z,34.23
2023-03-29T11:35:38.421Z,34.53
2023-03-29T11:38:04.848Z,34.87
2023-03-29T11:40:31.269Z,34.48
2023-03-29T11:42:57.752Z,34.76
2023-03-29T11:45:24.128Z,34.10
2023-03-29T11:47:50.623Z,34.53
2023-03-29T11:50:17.062Z,34.14
2023-03-29T11:52:43.459Z,34.48
2023-03-29T11:55:09.944Z,35.12
2023-03-29T11:57:36.334Z,34.73
2023-03-29T12:00:02.833Z,34.22
2023-03-29T12:02:29.399Z,34.06
2023-03-29T12:04:58.768Z,31.62
2023-03-29T12:07:25.191Z,31.83
2023-03-29T12:09:51.749Z,31.37
2023-03-29T12:12:18.153Z,30.92
2023-03-29T12:14:44.725Z,31.63
2023-03-29T12:17:12.901Z,31.92
2023-03-29T12:19:42.689Z,31.03
2023-03-29T12:22:09.954Z,31.23
2023-03-29T12:24:36.319Z,31.52
2023-03-29T12:27:02.875Z,30.79
2023-03-29T12:29:29.282Z,31.25
2023-03-29T12:31:55.812Z,31.30
2023-03-29T12:34:22.186Z,31.21
2023-03-29T12:36:48.685Z,30.86
2023-03-29T12:39:15.076Z,30.37
2023-03-29T12:41:41.492Z,30.92
2023-03-29T12:44:10.252Z,30.56
2023-03-29T12:46:37.187Z,31.42
2023-03-29T12:49:03.594Z,30.98
2023-03-29T12:51:29.989Z,30.06
2023-03-29T12:53:56.461Z,31.23
2023-03-29T12:56:22.825Z,31.36
2023-03-29T12:58:49.356Z,30.92
2023-03-29T13:01:15.894Z,31.49
2023-03-29T13:03:42.371Z,29.88
2023-03-29T13:06:08.723Z,29.99
2023-03-29T13:08:35.117Z,30.77
2023-03-29T13:11:01.564Z,30.66
2023-03-29T13:13:27.956Z,30.40
2023-03-29T13:15:54.617Z,30.52
2023-03-29T13:18:21.062Z,30.99
2023-03-29T13:20:50.384Z,30.42
2023-03-29T13:23:17.768Z,31.18
2023-03-29T13:25:44.516Z,30.40
2023-03-29T13:28:10.906Z,29.70
2023-03-29T13:30:37.290Z,29.37
2023-03-29T13:33:03.722Z,29.60
2023-03-29T13:35:30.201Z,29.47
2023-03-29T13:37:56.571Z,29.59
2023-03-29T13:40:22.939Z,29.31
2023-03-29T13:42:49.479Z,29.73
2023-03-29T13:45:15.998Z,30.02
2023-03-29T13:47:48.939Z,30.38
2023-03-29T13:50:24.993Z,29.75
2023-03-29T13:52:51.418Z,29.52
2023-03-29T13:55:17.790Z,29.51
2023-03-29T13:57:44.467Z,29.25
2023-03-29T14:00:10.853Z,29.61
2023-03-29T14:02:37.363Z,29.39
2023-03-29T14:05:03.813Z,29.29
2023-03-29T14:07:30.243Z,29.27
2023-03-29T14:09:56.674Z,29.47
2023-03-29T14:12:23.322Z,29.74
2023-03-29T14:14:58.708Z,29.23
2023-03-29T14:17:25.923Z,30.15
2023-03-29T14:19:52.303Z,29.42
2023-03-29T14:22:18.771Z,29.19
2023-03-29T14:24:45.156Z,29.23
2023-03-29T14:27:11.550Z,28.59
2023-03-29T14:29:38.041Z,29.12
2023-03-29T14:32:04.471Z,28.83
2023-03-29T14:34:31.030Z,28.69
2023-03-29T14:36:57.463Z,28.69
2023-03-29T14:39:23.981Z,28.67
2023-03-29T14:41:50.386Z,30.04
2023-03-29T14:44:16.830Z,30.51
2023-03-29T14:46:43.294Z,31.06
2023-03-29T14:49:09.819Z,30.51
2023-03-29T14:51:36.354Z,30.83
2023-03-29T14:54:02.729Z,30.64
2023-03-29T14:56:29.169Z,30.69
2023-03-29T14:58:55.582Z,30.57
2023-03-29T15:01:21.978Z,31.43
2023-03-29T15:03:48.437Z,31.39
2023-03-29T15:06:14.885Z,31.76
2023-03-29T15:08:44.093Z,31.40
2023-03-29T15:11:17.431Z,31.46
2023-03-29T15:13:43.886Z,31.41
2023-03-29T15:16:10.608Z,31.75
2023-03-29T15:18:37.201Z,31.72
2023-03-29T15:21:03.649Z,31.38
2023-03-29T15:23:30.314Z,31.45
2023-03-29T15:25:56.753Z,31.51
2023-03-29T15:28:23.151Z,31.79
2023-03-29T15:30:57.398Z,31.61
2023-03-29T15:33:31.446Z,30.87
2023-03-29T15:35:58.052Z,30.70
2023-03-29T15:38:33.167Z,30.12
2023-03-29T15:41:07.222Z,30.27
2023-03-29T15:43:33.963Z,29.93
2023-03-29T15:46:00.650Z,30.30
2023-03-29T15:48:27.076Z,30.14
2023-03-29T15:50:53.561Z,29.69
2023-03-29T15:53:19.942Z,29.34
2023-03-29T15:55:46.495Z,28.36
2023-03-29T15:58:13.099Z,27.87
2023-03-29T16:00:39.655Z,27.11
2023-03-29T16:03:06.068Z,26.95
2023-03-29T16:05:32.451Z,27.64
2023-03-29T16:07:58.844Z,27.71
2023-03-29T16:10:25.307Z,28.72
2023-03-29T16:12:51.694Z,29.58
2023-03-29T16:15:18.072Z,30.50
2023-03-29T16:17:44.477Z,30.85
2023-03-29T16:20:10.858Z,31.00
2023-03-29T16:22:37.365Z,31.64
2023-03-29T16:25:03.907Z,31.54
2023-03-29T16:27:30.362Z,31.61
2023-03-29T16:29:56.817Z,31.70
2023-03-29T16:32:23.326Z,32.67
2023-03-29T16:34:49.756Z,32.37
2023-03-29T16:37:16.142Z,32.96
2023-03-29T16:39:42.566Z,33.59
2023-03-29T16:42:08.954Z,33.78
2023-03-29T16:44:35.432Z,34.36
2023-03-29T16:47:01.796Z,34.82
2023-03-29T16:49:28.167Z,35.19
2023-03-29T16:51:54.607Z,35.43
2023-03-29T16:54:20.995Z,35.45
2023-03-29T16:56:47.458Z,36.33
2023-03-29T16:59:14.085Z,35.36
2023-03-29T17:01:40.680Z,36.09
2023-03-29T17:04:07.286Z,36.00
2023-03-29T17:06:33.692Z,35.90
2023-03-29T17:09:00.113Z,36.45
2023-03-29T17:11:26.808Z,36.88
2023-03-29T17:13:53.272Z,36.81
2023-03-29T17:16:19.720Z,37.65
2023-03-29T17:18:46.161Z,38.23
2023-03-29T17:21:12.704Z,38.81
2023-03-29T17:23:39.079Z,38.64
2023-03-29T17:26:05.605Z,38.00
2023-03-29T17:28:32.061Z,38.75
2023-03-29T17:30:58.450Z,38.20
2023-03-29T17:33:24.831Z,38.57
2023-03-29T17:35:51.304Z,39.20
2023-03-29T17:38:17.827Z,39.09
2023-03-29T17:40:44.240Z,39.52
2023-03-29T17:43:10.648Z,40.04
2023-03-29T17:45:37.028Z,40.83
2023-03-29T17:48:06.072Z,40.69
2023-03-29T17:50:33.125Z,40.85
2023-03-29T17:52:59.795Z,41.14
2023-03-29T17:55:26.161Z,40.77
2023-03-29T17:57:52.543Z,40.74
2023-03-29T18:00:18.951Z,40.09
2023-03-29T18:02:45.485Z,40.73
2023-03-29T18:05:11.949Z,41.43
2023-03-29T18:07:38.344Z,41.62
2023-03-29T18:10:04.725Z,41.50
2023-03-29T18:12:31.216Z,41.82
2023-03-29T18:14:57.623Z,41.79
2023-03-29T18:17:24.117Z,41.87
2023-03-29T18:19:50.514Z,42.34
2023-03-29T18:22:16.909Z,42.71
2023-03-29T18:24:43.318Z,43.73
2023-03-29T18:27:09.702Z,43.85
2023-03-29T18:29:36.151Z,43.77
2023-03-29T18:32:02.693Z,43.78
2023-03-29T18:34:29.199Z,44.21
2023-03-29T18:36:55.554Z,44.91
2023-03-29T18:39:21.941Z,45.32
2023-03-29T18:41:48.314Z,44.64
2023-03-29T18:44:14.694Z,44.73
2023-03-29T18:46:41.192Z,45.25
2023-03-29T18:49:07.747Z,44.75
2023-03-29T18:51:34.169Z,44.90
2023-03-29T18:54:00.639Z,44.32
2023-03-29T18:56:27.074Z,44.51
2023-03-29T18:58:53.539Z,44.84
2023-03-29T19:01:19.974Z,44.40
2023-03-29T19:03:46.437Z,44.71
2023-03-29T19:06:12.944Z,44.25
2023-03-29T19:08:39.442Z,44.66
2023-03-29T19:11:05.850Z,44.49
2023-03-29T19:13:32.256Z,44.59
2023-03-29T19:15:58.782Z,44.64
2023-03-29T19:18:25.216Z,44.61
2023-03-29T19:20:51.650Z,43.86
2023-03-29T19:23:18.096Z,43.98
2023-03-29T19:25:44.554Z,43.44
2023-03-29T19:28:10.952Z,43.69
2023-03-29T19:30:37.406Z,43.41
2023-03-29T19:33:03.864Z,43.77
2023-03-29T19:35:30.374Z,43.53
2023-03-29T19:37:56.902Z,43.12
2023-03-29T19:40:23.279Z,44.24
2023-03-29T19:42:49.789Z,44.11
2023-03-29T19:45:16.306Z,44.06
2023-03-29T19:47:42.977Z,43.57
2023-03-29T19:50:09.516Z,43.50
2023-03-29T19:52:36.008Z,43.28
2023-03-29T19:55:02.412Z,43.76
2023-03-29T19:57:28.828Z,43.53
2023-03-29T19:59:55.426Z,43.42
2023-03-29T20:02:21.896Z,43.41
2023-03-29T20:04:48.267Z,43.00
2023-03-29T20:07:14.654Z,43.49
2023-03-29T20:09:42.685Z,43.88
2023-03-29T20:12:10.285Z,43.56
2023-03-29T20:14:36.662Z,43.79
2023-03-29T20:17:03.093Z,44.41
2023-03-29T20:19:29.487Z,45.08
2023-03-29T20:21:55.862Z,45.47
2023-03-29T20:24:22.247Z,45.52
2023-03-29T20:26:48.627Z,45.06
2023-03-29T20:29:15.050Z,44.89
2023-03-29T20:31:41.448Z,44.67
2023-03-29T20:34:07.813Z,44.30
2023-03-29T20:36:34.240Z,44.39
2023-03-29T20:39:00.672Z,44.80
2023-03-29T20:41:27.092Z,44.84
2023-03-29T20:43:53.467Z,44.46
2023-03-29T20:46:19.865Z,44.21
2023-03-29T20:48:46.240Z,44.58
2023-03-29T20:51:12.604Z,44.40
2023-03-29T20:53:39.063Z,45.47
2023-03-29T20:56:05.439Z,44.79
2023-03-29T20:58:31.817Z,45.09
2023-03-29T21:00:58.209Z,45.35
2023-03-29T21:03:24.717Z,45.91
2023-03-29T21:05:51.152Z,46.19
2023-03-29T21:08:17.538Z,46.13
2023-03-29T21:10:45.098Z,46.52
2023-03-29T21:13:11.447Z,46.71
2023-03-29T21:15:37.867Z,46.62
2023-03-29T21:18:04.278Z,46.56
2023-03-29T21:20:30.762Z,47.13
2023-03-29T21:22:57.244Z,47.65
2023-03-29T21:25:23.650Z,46.85
2023-03-29T21:27:50.088Z,46.72
2023-03-29T21:30:16.479Z,46.41
2023-03-29T21:32:42.944Z,46.02
2023-03-29T21:35:09.407Z,46.47
2023-03-29T21:37:35.778Z,46.59
2023-03-29T21:40:02.144Z,46.09
2023-03-29T21:42:28.565Z,45.97
2023-03-29T21:44:55.101Z,45.81
2023-03-29T21:47:21.666Z,45.94
2023-03-29T21:49:48.075Z,46.01
2023-03-29T21:52:14.502Z,46.25
2023-03-29T21:54:41.057Z,45.82
2023-03-29T21:57:07.564Z,46.15
2023-03-29T21:59:34.136Z,45.75
2023-03-29T22:02:00.564Z,46.12
2023-03-29T22:04:36.059Z,45.95
2023-03-29T22:07:03.754Z,45.93
2023-03-29T22:09:30.144Z,45.51
2023-03-29T22:11:56.538Z,45.91
2023-03-29T22:14:22.988Z,45.72
2023-03-29T22:16:49.367Z,45.74
2023-03-29T22:19:15.822Z,45.74
2023-03-29T22:21:42.253Z,45.21
2023-03-29T22:24:08.642Z,45.63
2023-03-29T22:26:35.164Z,45.40
2023-03-29T22:29:01.570Z,45.69
2023-03-29T22:31:28.035Z,45.75
2023-03-29T22:33:54.481Z,46.04
2023-03-29T22:36:20.851Z,45.64
2023-03-29T22:38:47.273Z,45.85
2023-03-29T22:41:13.646Z,46.30
2023-03-29T22:43:40.012Z,46.27
2023-03-29T22:46:06.422Z,45.98
2023-03-29T22:48:32.905Z,45.72
2023-03-29T22:50:59.279Z,46.79
2023-03-29T22:53:25.658Z,46.61
2023-03-29T22:55:52.144Z,46.70
2023-03-29T22:58:18.536Z,46.68
2023-03-29T23:00:44.961Z,46.57
2023-03-29T23:03:11.495Z,46.35
2023-03-29T23:05:37.879Z,46.53
2023-03-29T23:08:04.253Z,46.20
2023-03-29T23:10:30.741Z,46.22
2023-03-29T23:12:57.125Z,45.92
2023-03-29T23:15:23.512Z,46.26
2023-03-29T23:17:49.937Z,46.20
2023-03-29T23:20:16.365Z,46.93
2023-03-29T23:22:42.739Z,46.93
2023-03-29T23:25:09.135Z,47.44
2023-03-29T23:27:35.522Z,47.37
2023-03-29T23:30:01.937Z,47.16
2023-03-29T23:32:28.321Z,47.00
2023-03-29T23:34:54.728Z,47.40
2023-03-29T23:37:21.099Z,47.22
2023-03-29T23:39:47.488Z,47.37
2023-03-29T23:42:13.864Z,47.57
2023-03-29T23:44:40.264Z,47.88
2023-03-29T23:47:06.727Z,48.46
2023-03-29T23:49:33.142Z,48.24
2023-03-29T23:51:59.525Z,47.50
2023-03-29T23:54:25.916Z,47.63
2023-03-29T23:56:52.298Z,47.72
2023-03-29T23:59:18.752Z,48.45
